createdAt,value
2022-08-19T04:02:00.085Z,51.47
2022-08-19T04:05:02.563Z,51.47
2022-08-19T04:08:08.692Z,52.11
2022-08-19T04:11:18.932Z,56.19
2022-08-19T04:14:25.082Z,52.04
2022-08-19T04:17:27.429Z,51.84
2022-08-19T04:20:29.489Z,51.98
2022-08-19T04:23:32.871Z,51.88
2022-08-19T04:26:37.769Z,50.98
2022-08-19T04:29:41.298Z,51.40
2022-08-19T04:32:44.621Z,51.95
2022-08-19T04:35:49.261Z,50.89
2022-08-19T04:38:55.828Z,50.70
2022-08-19T04:42:16.653Z,50.76
2022-08-19T04:45:18.794Z,51.29
2022-08-19T04:48:28.087Z,50.71
2022-08-19T04:51:32.132Z,50.84
2022-08-19T04:54:38.549Z,51.02
2022-08-19T04:57:41.627Z,51.27
2022-08-19T05:00:44.546Z,51.29
2022-08-19T05:03:46.701Z,50.70
2022-08-19T05:06:50.202Z,50.96
2022-08-19T05:09:58.581Z,50.61
2022-08-19T05:13:01.412Z,50.20
2022-08-19T05:16:03.889Z,50.99
2022-08-19T05:19:24.990Z,50.64
2022-08-19T05:22:33.863Z,50.81
2022-08-19T05:25:40.688Z,50.90
2022-08-19T05:28:43.749Z,49.75
2022-08-19T05:31:47.056Z,50.00
2022-08-19T05:34:49.142Z,49.80
2022-08-19T05:37:54.879Z,49.66
2022-08-19T05:41:01.013Z,49.52
2022-08-19T05:44:07.369Z,49.63
2022-08-19T05:47:09.525Z,48.99
2022-08-19T05:50:11.954Z,49.18
2022-08-19T05:53:17.227Z,49.85
2022-08-19T05:56:20.380Z,48.58
2022-08-19T05:59:22.845Z,49.04
2022-08-19T06:02:28.563Z,48.74
2022-08-19T06:05:31.918Z,47.62
2022-08-19T06:08:51.028Z,48.50
2022-08-19T06:11:56.322Z,48.10
2022-08-19T06:15:01.103Z,47.88
2022-08-19T06:18:04.460Z,49.01
2022-08-19T06:21:06.541Z,48.22
2022-08-19T06:24:11.187Z,48.15
2022-08-19T06:27:13.245Z,47.84
2022-08-19T06:30:16.245Z,46.93
2022-08-19T06:33:18.718Z,47.39
2022-08-19T06:36:30.995Z,47.38
2022-08-19T06:39:36.253Z,46.65
2022-08-19T06:42:50.977Z,46.28
2022-08-19T06:45:57.882Z,47.01
2022-08-19T06:49:01.567Z,46.13
2022-08-19T06:52:04.888Z,46.02
2022-08-19T06:55:07.526Z,46.13
2022-08-19T06:58:10.361Z,45.96
2022-08-19T07:01:12.794Z,45.60
2022-08-19T07:04:17.694Z,45.21
2022-08-19T07:07:23.118Z,45.46
2022-08-19T07:10:26.182Z,45.40
2022-08-19T07:13:28.527Z,45.04
2022-08-19T07:16:31.074Z,44.19
2022-08-19T07:19:34.211Z,44.20
2022-08-19T07:22:36.533Z,43.94
2022-08-19T07:25:39.717Z,43.57
2022-08-19T07:28:46.054Z,43.56
2022-08-19T07:31:57.204Z,43.43
2022-08-19T07:35:01.461Z,42.84
2022-08-19T07:38:04.453Z,43.47
2022-08-19T07:41:07.182Z,43.20
2022-08-19T07:44:10.422Z,43.75
2022-08-19T07:47:58.758Z,44.61
2022-08-19T07:50:36.307Z,43.41
2022-08-19T07:53:39.875Z,43.11
2022-08-19T07:56:42.445Z,43.07
2022-08-19T07:59:44.646Z,42.51
2022-08-19T08:02:47.082Z,42.32
2022-08-19T08:06:08.186Z,42.35
2022-08-19T08:09:16.718Z,41.12
2022-08-19T08:12:34.047Z,41.86
2022-08-19T08:15:42.181Z,41.81
2022-08-19T08:18:50.703Z,41.75
2022-08-19T08:21:57.426Z,41.50
2022-08-19T08:25:04.059Z,41.59
2022-08-19T08:28:11.302Z,39.83
2022-08-19T08:31:21.026Z,39.27
2022-08-19T08:34:23.443Z,40.15
2022-08-19T08:37:25.791Z,39.30
2022-08-19T08:40:30.234Z,38.46
2022-08-19T08:43:38.043Z,38.63
2022-08-19T08:46:49.077Z,38.43
2022-08-19T08:50:01.979Z,37.96
2022-08-19T08:53:06.526Z,38.36
2022-08-19T08:56:13.389Z,38.82
2022-08-19T08:59:29.414Z,37.34
2022-08-19T09:02:31.757Z,37.99
2022-08-19T09:05:53.757Z,37.80
2022-08-19T09:09:11.798Z,38.15
2022-08-19T09:12:37.449Z,38.45
2022-08-19T09:15:45.786Z,38.09
2022-08-19T09:18:54.261Z,37.81
2022-08-19T09:21:57.484Z,37.91
2022-08-19T09:25:00.123Z,38.12
2022-08-19T09:28:20.579Z,37.96
2022-08-19T09:31:27.723Z,37.96
2022-08-19T09:34:30.376Z,37.48
2022-08-19T09:37:40.460Z,37.57
2022-08-19T09:40:42.885Z,36.69
2022-08-19T09:43:47.923Z,36.65
2022-08-19T09:46:51.790Z,37.12
2022-08-19T09:49:53.858Z,36.31
2022-08-19T09:52:57.888Z,36.37
2022-08-19T09:56:00.125Z,35.90
2022-08-19T09:59:06.510Z,36.67
2022-08-19T10:02:10.838Z,36.12
2022-08-19T10:05:32.139Z,35.77
2022-08-19T10:08:37.426Z,35.87
2022-08-19T10:11:54.519Z,35.21
2022-08-19T10:14:57.150Z,35.22
2022-08-19T10:18:00.189Z,35.86
2022-08-19T10:21:12.568Z,35.17
2022-08-19T10:24:15.030Z,35.62
2022-08-19T10:27:20.682Z,34.92
2022-08-19T10:30:23.101Z,35.01
2022-08-19T10:33:40.935Z,34.83
2022-08-19T10:36:56.241Z,34.95
2022-08-19T10:39:59.639Z,34.38
2022-08-19T10:43:01.995Z,34.44
2022-08-19T10:46:04.758Z,33.78
2022-08-19T10:49:12.369Z,33.84
2022-08-19T10:52:32.817Z,34.06
2022-08-19T10:55:54.676Z,34.00
2022-08-19T10:58:58.413Z,33.97
2022-08-19T11:02:02.125Z,33.26
2022-08-19T11:05:12.441Z,33.57
2022-08-19T11:08:22.762Z,33.30
2022-08-19T11:11:27.758Z,33.47
2022-08-19T11:14:32.117Z,32.67
2022-08-19T11:17:36.891Z,32.71
2022-08-19T11:20:39.230Z,32.61
2022-08-19T11:23:41.477Z,32.53
2022-08-19T11:26:45.434Z,33.76
2022-08-19T11:29:47.631Z,32.11
2022-08-19T11:32:50.422Z,32.28
2022-08-19T11:35:53.049Z,31.82
2022-08-19T11:38:55.859Z,31.88
2022-08-19T11:42:02.726Z,31.92
2022-08-19T11:45:05.599Z,31.60
2022-08-19T11:48:07.737Z,31.62
2022-08-19T11:51:13.181Z,30.94
2022-08-19T11:54:17.318Z,32.22
2022-08-19T11:57:20.721Z,31.32
2022-08-19T12:00:22.876Z,30.82
2022-08-19T12:03:25.290Z,30.79
2022-08-19T12:06:32.698Z,31.09
2022-08-19T12:09:35.416Z,30.79
2022-08-19T12:12:41.389Z,30.53
2022-08-19T12:15:43.981Z,31.16
2022-08-19T12:18:49.482Z,30.42
2022-08-19T12:21:54.026Z,30.65
2022-08-19T12:24:56.281Z,30.49
2022-08-19T12:27:59.357Z,31.02
2022-08-19T12:31:01.553Z,30.33
2022-08-19T12:34:03.937Z,30.34
2022-08-19T12:37:07.203Z,30.53
2022-08-19T12:40:10.640Z,30.68
2022-08-19T12:43:12.817Z,30.91
2022-08-19T12:46:15.234Z,30.39
2022-08-19T12:49:30.417Z,30.82
2022-08-19T12:52:43.127Z,30.48
2022-08-19T12:55:46.990Z,30.64
2022-08-19T12:58:50.774Z,30.41
2022-08-19T13:01:55.177Z,29.73
2022-08-19T13:04:57.763Z,30.18
2022-08-19T13:08:00.691Z,30.05
2022-08-19T13:11:12.714Z,30.47
2022-08-19T13:14:14.777Z,30.41
2022-08-19T13:17:17.322Z,29.63
2022-08-19T13:20:21.177Z,29.74
2022-08-19T13:23:23.522Z,29.43
2022-08-19T13:26:25.609Z,29.41
2022-08-19T13:29:46.385Z,29.13
2022-08-19T13:33:07.075Z,29.22
2022-08-19T13:36:09.409Z,29.74
2022-08-19T13:39:13.368Z,29.51
2022-08-19T13:42:15.722Z,29.76
2022-08-19T13:45:21.240Z,30.18
2022-08-19T13:48:24.508Z,30.16
2022-08-19T13:51:26.744Z,30.41
2022-08-19T13:54:29.118Z,31.39
2022-08-19T13:57:31.430Z,32.31
2022-08-19T14:00:39.701Z,33.60
2022-08-19T14:03:42.045Z,34.37
2022-08-19T14:06:44.119Z,35.26
2022-08-19T14:09:46.441Z,35.83
2022-08-19T14:12:56.351Z,36.89
2022-08-19T14:15:59.046Z,36.71
2022-08-19T14:19:01.968Z,36.64
2022-08-19T14:22:06.210Z,36.79
2022-08-19T14:25:11.037Z,36.59
2022-08-19T14:28:13.362Z,36.70
2022-08-19T14:31:19.781Z,36.80
2022-08-19T14:34:23.110Z,36.78
2022-08-19T14:37:25.205Z,37.19
